Time;durP1;ratioP1;P1;durP2;ratioP2;P2;SDS_P1;SDS_P2;PMS_P1;PMS_P2;Temp;Humidity;BMP_temperature;BMP_pressure;BME280_temperature;BME280_humidity;BME280_pressure;Samples;Min_cycle;Max_cycle;Signal;HPM_P1;HPM_P2
2023/12/06 00:01:30;;;;;;;101.60;60.05;;;;;;;-0.06;100.00;100867.06;5042437;28;20327;-69
2023/12/06 00:03:55;;;;;;;102.10;61.55;;;;;;;0.00;100.00;100874.00;5042125;28;20158;-69
2023/12/06 00:06:21;;;;;;;102.47;61.05;;;;;;;0.01;100.00;100880.97;5043397;28;20103;-68
2023/12/06 00:08:46;;;;;;;106.82;64.60;;;;;;;0.02;100.00;100866.13;5043181;28;20089;-68
2023/12/06 00:11:12;;;;;;;101.15;60.35;;;;;;;0.03;100.00;100879.19;5043077;28;20025;-68
2023/12/06 00:13:37;;;;;;;109.05;61.83;;;;;;;0.04;100.00;100878.31;5043187;28;20029;-68
2023/12/06 00:16:03;;;;;;;109.65;64.43;;;;;;;0.05;100.00;100869.59;5043759;28;20025;-68
2023/12/06 00:18:29;;;;;;;106.38;62.75;;;;;;;0.06;100.00;100884.41;5042952;28;20538;-68
2023/12/06 00:20:54;;;;;;;106.75;62.55;;;;;;;0.04;100.00;100878.31;5041180;28;20580;-68
2023/12/06 00:23:19;;;;;;;113.05;64.88;;;;;;;0.07;100.00;100886.16;5042151;28;20467;-69
2023/12/06 00:25:45;;;;;;;110.43;62.25;;;;;;;0.08;100.00;100894.88;5043258;28;20514;-68
2023/12/06 00:28:10;;;;;;;109.93;64.38;;;;;;;0.10;100.00;100873.06;5042400;28;20032;-69
2023/12/06 00:30:36;;;;;;;104.38;62.92;;;;;;;0.11;100.00;100884.38;5042147;28;20035;-68
2023/12/06 00:33:02;;;;;;;109.70;62.03;;;;;;;0.12;100.00;100892.22;5042840;28;20431;-69
2023/12/06 00:35:27;;;;;;;107.80;62.67;;;;;;;0.13;100.00;100885.25;5043092;28;20097;-68
2023/12/06 00:37:53;;;;;;;106.63;61.13;;;;;;;0.12;100.00;100892.22;5043259;28;20346;-67
2023/12/06 00:40:18;;;;;;;109.68;62.38;;;;;;;0.14;100.00;100895.69;5041167;28;20017;-69
2023/12/06 00:42:43;;;;;;;113.05;64.80;;;;;;;0.06;100.00;100884.41;5042040;28;20032;-70
2023/12/06 00:45:09;;;;;;;111.97;64.45;;;;;;;0.14;100.00;100900.94;5040730;28;20061;-68
2023/12/06 00:47:35;;;;;;;114.00;65.35;;;;;;;0.15;100.00;100907.03;5041392;28;20040;-68
2023/12/06 00:50:00;;;;;;;114.43;64.40;;;;;;;0.16;100.00;100907.00;5042362;28;20029;-68
2023/12/06 00:52:25;;;;;;;116.88;64.85;;;;;;;0.11;100.00;100900.09;5041850;28;20029;-68
2023/12/06 00:54:51;;;;;;;114.22;63.75;;;;;;;0.18;100.00;100912.25;5042616;28;20058;-69
2023/12/06 00:57:16;;;;;;;115.35;64.05;;;;;;;0.14;100.00;100908.78;5042321;28;20167;-69
2023/12/06 00:59:41;;;;;;;116.40;65.32;;;;;;;0.18;100.00;100923.59;5040465;28;20398;-69
2023/12/06 01:02:07;;;;;;;110.45;63.22;;;;;;;0.18;100.00;100922.72;5039480;28;20115;-68
2023/12/06 01:04:36;;;;;;;108.28;61.63;;;;;;;0.19;100.00;100932.31;5042580;28;20510;-69
2023/12/06 01:07:01;;;;;;;111.70;62.95;;;;;;;0.21;100.00;100935.81;5042861;28;20047;-69
2023/12/06 01:09:26;;;;;;;112.50;63.05;;;;;;;0.19;100.00;100935.78;5041813;28;20028;-68
2023/12/06 01:11:52;;;;;;;112.38;63.45;;;;;;;0.14;100.00;100926.25;5041751;28;20036;-68
2023/12/06 01:14:18;;;;;;;108.40;63.17;;;;;;;0.22;100.00;100941.00;5042153;28;20029;-68
2023/12/06 01:16:43;;;;;;;111.70;62.50;;;;;;;0.23;100.00;100942.75;5040406;28;20031;-69
2023/12/06 01:19:08;;;;;;;108.00;62.78;;;;;;;0.23;100.00;100941.88;5041993;28;20043;-69
2023/12/06 01:21:34;;;;;;;103.43;59.97;;;;;;;0.22;100.00;100945.38;5042730;28;20064;-68
2023/12/06 01:23:59;;;;;;;104.18;61.50;;;;;;;0.21;100.00;100944.53;5040265;28;20039;-69
2023/12/06 01:26:24;;;;;;;98.18;58.53;;;;;;;0.21;100.00;100949.75;5041596;28;20032;-69
2023/12/06 01:28:49;;;;;;;97.75;58.15;;;;;;;0.21;100.00;100946.28;5042757;28;20024;-69
2023/12/06 01:31:15;;;;;;;94.82;57.42;;;;;;;0.21;100.00;100955.00;5020102;28;20490;-69
2023/12/06 01:33:40;;;;;;;95.88;57.15;;;;;;;0.21;100.00;100955.00;5042483;28;20093;-68
2023/12/06 01:36:05;;;;;;;94.05;56.63;;;;;;;0.21;100.00;100959.38;5042713;28;20060;-68
2023/12/06 01:38:31;;;;;;;98.70;57.85;;;;;;;0.23;100.00;100962.81;5042918;28;20120;-68
2023/12/06 01:40:56;;;;;;;96.40;56.42;;;;;;;0.22;100.00;100963.72;5042106;28;20040;-69
2023/12/06 01:43:22;;;;;;;91.43;56.30;;;;;;;0.22;100.00;100975.03;5042705;28;20122;-69
2023/12/06 01:45:47;;;;;;;92.57;57.50;;;;;;;0.15;100.00;100959.38;5039357;28;20048;-70
2023/12/06 01:48:12;;;;;;;91.50;56.22;;;;;;;0.22;100.00;100985.50;5040395;28;20044;-70
2023/12/06 01:50:39;;;;;;;92.57;56.00;;;;;;;0.22;100.00;100982.03;5040741;28;20021;-70
2023/12/06 01:53:04;;;;;;;88.30;54.17;;;;;;;0.22;100.00;100971.56;5041488;28;20341;-68
2023/12/06 01:55:31;;;;;;;91.05;55.60;;;;;;;0.16;100.00;100982.06;5041330;28;20475;-67
2023/12/06 01:57:58;;;;;;;90.35;55.65;;;;;;;0.22;100.00;100987.28;5040017;28;20130;-68
2023/12/06 02:00:24;;;;;;;91.28;56.58;;;;;;;0.19;100.00;100987.28;5039700;28;20044;-68
2023/12/06 02:02:50;;;;;;;86.90;54.65;;;;;;;0.19;100.00;100984.66;5038185;28;20108;-68
2023/12/06 02:05:16;;;;;;;92.20;54.05;;;;;;;0.21;100.00;100991.63;5041026;28;20108;-68
2023/12/06 02:07:43;;;;;;;87.53;54.95;;;;;;;0.21;100.00;100988.16;5039011;28;20114;-68
2023/12/06 02:10:09;;;;;;;86.15;53.92;;;;;;;0.20;100.00;100995.13;5039869;28;20016;-68
2023/12/06 02:12:37;;;;;;;80.18;50.95;;;;;;;0.22;100.00;100992.50;5033034;28;20029;-68
2023/12/06 02:15:03;;;;;;;79.32;52.45;;;;;;;0.19;100.00;100998.63;5041087;28;20021;-68
2023/12/06 02:17:30;;;;;;;82.90;53.83;;;;;;;0.21;100.00;100998.63;5041100;28;20064;-69
2023/12/06 02:19:56;;;;;;;79.32;52.58;;;;;;;0.21;100.00;101004.72;5039527;28;20078;-68
2023/12/06 02:22:24;;;;;;;81.00;52.08;;;;;;;0.22;100.00;101002.97;5041779;28;20029;-68
2023/12/06 02:24:53;;;;;;;80.93;51.22;;;;;;;0.23;100.00;101010.81;5041253;28;20021;-69
2023/12/06 02:27:20;;;;;;;83.25;53.25;;;;;;;0.23;100.00;101000.34;5033679;28;20094;-68
2023/12/06 02:29:46;;;;;;;84.18;53.33;;;;;;;0.23;100.00;101002.97;5020463;28;20029;-68
2023/12/06 02:32:11;;;;;;;85.30;53.53;;;;;;;0.23;100.00;100999.47;5039923;28;20086;-69
2023/12/06 02:34:38;;;;;;;83.47;53.83;;;;;;;0.23;100.00;101013.44;5041196;28;20028;-69
2023/12/06 02:37:07;;;;;;;82.20;53.63;;;;;;;0.22;100.00;100998.59;5041659;28;20646;-68
2023/12/06 02:39:35;;;;;;;79.75;52.45;;;;;;;0.19;100.00;101003.84;5041760;28;20056;-68
2023/12/06 02:42:00;;;;;;;85.25;54.25;;;;;;;0.20;100.00;101009.94;5024704;28;20039;-68
2023/12/06 02:44:26;;;;;;;85.57;55.75;;;;;;;0.19;100.00;101008.22;5044163;28;20044;-68
2023/12/06 02:46:53;;;;;;;81.47;54.33;;;;;;;0.21;100.00;101011.72;5042104;28;20068;-69
2023/12/06 02:49:18;;;;;;;84.97;54.00;;;;;;;0.20;100.00;101008.19;5044597;28;20157;-69
2023/12/06 02:51:44;;;;;;;84.65;53.42;;;;;;;0.21;100.00;101009.09;5044383;28;20056;-68
2023/12/06 02:54:09;;;;;;;83.78;53.72;;;;;;;0.20;100.00;101002.09;5041941;28;20049;-69
2023/12/06 02:56:36;;;;;;;83.97;53.65;;;;;;;0.20;100.00;101000.34;5044219;28;20029;-67
2023/12/06 02:59:01;;;;;;;76.88;51.50;;;;;;;0.22;100.00;101008.22;5043593;28;20029;-68
2023/12/06 03:01:27;;;;;;;80.32;51.97;;;;;;;0.23;100.00;101015.19;5044134;28;20040;-68
2023/12/06 03:03:52;;;;;;;82.68;53.65;;;;;;;0.19;100.00;101005.59;5044015;28;20029;-69
2023/12/06 03:06:17;;;;;;;84.72;55.42;;;;;;;0.24;100.00;101014.28;5044204;28;20044;-69
2023/12/06 03:08:43;;;;;;;81.60;52.90;;;;;;;0.26;100.00;101017.78;5039447;28;20032;-69
2023/12/06 03:11:08;;;;;;;80.68;52.72;;;;;;;0.28;100.00;101017.75;5043334;28;20025;-69
2023/12/06 03:13:33;;;;;;;84.78;53.47;;;;;;;0.29;100.00;101016.88;5042592;28;20384;-69
2023/12/06 03:15:59;;;;;;;81.07;52.38;;;;;;;0.28;100.00;101005.53;5042600;28;20079;-69
2023/12/06 03:18:24;;;;;;;79.80;51.28;;;;;;;0.30;100.00;101010.78;5042499;28;20029;-70
2023/12/06 03:20:49;;;;;;;78.63;53.17;;;;;;;0.33;100.00;101010.75;5044014;28;20112;-69
2023/12/06 03:23:15;;;;;;;75.88;50.88;;;;;;;0.34;100.00;101008.13;5038609;28;20087;-68
2023/12/06 03:25:40;;;;;;;75.78;52.60;;;;;;;0.36;100.00;101014.22;5040667;28;20039;-68
2023/12/06 03:28:05;;;;;;;78.00;51.78;;;;;;;0.34;100.00;101009.88;5021416;28;20029;-69
2023/12/06 03:30:31;;;;;;;75.72;50.28;;;;;;;0.38;100.00;101015.09;5044281;28;20033;-69
2023/12/06 03:32:56;;;;;;;71.50;50.08;;;;;;;0.38;100.00;101020.34;5043082;28;20438;-70
2023/12/06 03:35:21;;;;;;;73.97;50.90;;;;;;;0.38;100.00;101029.94;5043776;28;20044;-70
2023/12/06 03:37:47;;;;;;;75.97;50.15;;;;;;;0.38;100.00;101030.81;5021934;28;20037;-70
2023/12/06 03:40:12;;;;;;;76.95;52.45;;;;;;;0.40;100.00;101031.66;5042728;28;20087;-70
2023/12/06 03:42:37;;;;;;;76.32;52.15;;;;;;;0.40;100.00;101036.88;5043146;28;20158;-70
2023/12/06 03:45:03;;;;;;;73.35;50.80;;;;;;;0.42;100.00;101031.66;5043713;28;20053;-70
2023/12/06 03:47:29;;;;;;;78.53;50.80;;;;;;;0.43;100.00;101036.88;5025213;28;20056;-69
2023/12/06 03:49:54;;;;;;;72.45;49.90;;;;;;;0.45;100.00;101032.47;5043458;28;20479;-69
2023/12/06 03:52:19;;;;;;;68.47;49.30;;;;;;;0.47;100.00;101042.97;5043133;28;20233;-69
2023/12/06 03:54:45;;;;;;;72.65;49.15;;;;;;;0.48;100.00;101037.72;5038636;28;20021;-70
2023/12/06 03:57:10;;;;;;;69.93;49.08;;;;;;;0.49;100.00;101039.44;5042878;28;20078;-70
2023/12/06 03:59:35;;;;;;;70.70;49.75;;;;;;;0.51;100.00;101041.22;5041744;28;20033;-69
2023/12/06 04:02:01;;;;;;;69.70;49.22;;;;;;;0.51;100.00;101046.44;5043434;28;20146;-70
2023/12/06 04:04:26;;;;;;;68.07;48.20;;;;;;;0.51;100.00;101052.56;5041245;28;20116;-69
2023/12/06 04:06:52;;;;;;;70.15;48.78;;;;;;;0.53;100.00;101049.91;5042983;28;20025;-69
2023/12/06 04:09:17;;;;;;;68.78;48.05;;;;;;;0.53;100.00;101050.78;5042372;28;20157;-69
2023/12/06 04:11:42;;;;;;;71.28;50.45;;;;;;;0.58;100.00;101053.34;5043390;28;20048;-69
2023/12/06 04:14:08;;;;;;;68.53;47.05;;;;;;;0.58;100.00;101055.97;5042999;28;20028;-69
2023/12/06 04:16:36;;;;;;;70.07;50.13;;;;;;;0.60;100.00;101059.47;5040418;28;20123;-69
2023/12/06 04:19:02;;;;;;;64.82;47.67;;;;;;;0.58;100.00;101058.59;5043348;28;20036;-69
2023/12/06 04:21:28;;;;;;;63.60;47.28;;;;;;;0.63;100.00;101064.69;5042552;28;20025;-69
2023/12/06 04:23:53;;;;;;;67.78;49.63;;;;;;;0.60;100.00;101049.00;5041391;28;20453;-69
2023/12/06 04:26:19;;;;;;;64.53;47.22;;;;;;;0.66;100.00;101056.81;5042446;28;20044;-71
2023/12/06 04:28:44;;;;;;;64.93;47.53;;;;;;;0.60;100.00;101049.88;5042253;28;20029;-69
2023/12/06 04:31:09;;;;;;;66.47;46.53;;;;;;;0.69;100.00;101067.28;5042592;28;20037;-70
2023/12/06 04:33:35;;;;;;;66.78;47.50;;;;;;;0.69;100.00;101065.50;5040293;28;20043;-68
2023/12/06 04:36:00;;;;;;;66.93;47.25;;;;;;;0.72;100.00;101070.75;5019882;28;20585;-70
2023/12/06 04:38:25;;;;;;;65.30;45.78;;;;;;;0.73;100.00;101071.59;5041379;28;20063;-71
2023/12/06 04:40:51;;;;;;;67.63;47.55;;;;;;;0.74;100.00;101076.81;5042049;28;20303;-70
2023/12/06 04:43:17;;;;;;;66.05;47.00;;;;;;;0.77;100.00;101072.47;5041666;28;20081;-69
2023/12/06 04:45:43;;;;;;;67.13;47.45;;;;;;;0.77;100.00;101075.94;5039670;28;20053;-70
2023/12/06 04:48:08;;;;;;;66.40;47.17;;;;;;;0.77;100.00;101075.09;5042037;28;20035;-69
2023/12/06 04:50:33;;;;;;;68.40;46.70;;;;;;;0.76;100.00;101075.97;5042499;28;20544;-70
2023/12/06 04:52:59;;;;;;;67.43;46.95;;;;;;;0.76;100.00;101070.72;5039716;28;20025;-71
2023/12/06 04:55:24;;;;;;;67.78;48.53;;;;;;;0.82;100.00;101078.53;5039196;28;20025;-70
2023/12/06 04:57:50;;;;;;;66.50;47.88;;;;;;;0.83;100.00;101080.25;5038891;28;20117;-70
2023/12/06 05:00:16;;;;;;;69.40;48.25;;;;;;;0.88;100.00;101086.34;5041220;28;20082;-70
2023/12/06 05:02:42;;;;;;;70.43;47.03;;;;;;;0.86;100.00;101088.97;5041182;28;20036;-69
2023/12/06 05:05:07;;;;;;;72.65;48.35;;;;;;;0.81;100.00;101085.53;5038558;28;20032;-70
2023/12/06 05:07:33;;;;;;;63.00;46.15;;;;;;;0.90;100.00;101092.44;5041883;28;20238;-68
2023/12/06 05:09:58;;;;;;;66.93;47.40;;;;;;;0.92;100.00;101095.91;5041838;28;20025;-69
2023/12/06 05:12:23;;;;;;;68.82;47.67;;;;;;;0.91;100.00;101088.94;5041913;28;20377;-69
2023/12/06 05:14:48;;;;;;;68.78;47.83;;;;;;;0.94;100.00;101096.78;5040480;28;20032;-70
2023/12/06 05:17:14;;;;;;;70.15;50.00;;;;;;;0.96;100.00;101095.91;5041453;28;20029;-70
2023/12/06 05:19:39;;;;;;;70.07;49.25;;;;;;;0.95;100.00;101096.75;5041910;28;20063;-70
2023/12/06 05:22:05;;;;;;;72.70;50.75;;;;;;;1.01;100.00;101102.88;5041478;28;20229;-67
2023/12/06 05:24:30;;;;;;;72.95;49.50;;;;;;;1.01;100.00;101106.34;5041787;28;20064;-68
2023/12/06 05:26:55;;;;;;;73.93;49.40;;;;;;;1.02;100.00;101108.09;5042168;28;20037;-68
2023/12/06 05:29:21;;;;;;;73.03;50.13;;;;;;;1.07;100.00;101113.28;5041094;28;20131;-69
2023/12/06 05:31:46;;;;;;;74.70;51.00;;;;;;;1.08;100.00;101110.66;5041923;28;20025;-68
2023/12/06 05:34:11;;;;;;;74.57;50.67;;;;;;;1.01;100.00;101100.25;5037247;28;20024;-68
2023/12/06 05:36:37;;;;;;;74.30;49.65;;;;;;;1.07;100.00;101115.91;5041338;28;20123;-67
2023/12/06 05:39:05;;;;;;;74.63;51.10;;;;;;;1.11;100.00;101115.00;5041664;28;20044;-69
2023/12/06 05:41:31;;;;;;;78.60;52.20;;;;;;;1.13;100.00;101110.59;5024057;28;20035;-67
2023/12/06 05:43:57;;;;;;;76.72;51.85;;;;;;;1.15;100.00;101117.59;5037215;28;20376;-69
2023/12/06 05:46:22;;;;;;;80.93;52.38;;;;;;;1.16;100.00;101121.94;5041637;28;20032;-68
2023/12/06 05:48:47;;;;;;;77.70;51.80;;;;;;;1.18;100.00;101122.81;5040980;28;20040;-68
2023/12/06 05:51:13;;;;;;;81.97;53.75;;;;;;;1.19;100.00;101121.94;5038893;28;20071;-68
2023/12/06 05:53:39;;;;;;;83.97;53.90;;;;;;;1.17;100.00;101115.84;5040279;28;20032;-68
2023/12/06 05:56:08;;;;;;;78.35;54.95;;;;;;;1.23;100.00;101126.28;5025288;28;20040;-68
2023/12/06 05:58:34;;;;;;;83.38;52.92;;;;;;;1.22;100.00;101123.66;5041174;28;20096;-68
2023/12/06 06:01:00;;;;;;;84.07;54.20;;;;;;;1.26;100.00;101129.75;5040855;28;20035;-69
2023/12/06 06:03:26;;;;;;;82.97;53.30;;;;;;;1.27;100.00;101129.75;5036258;28;20072;-68
2023/12/06 06:05:51;;;;;;;82.57;53.42;;;;;;;1.26;100.00;101133.25;5033196;28;20063;-69
2023/12/06 06:08:17;;;;;;;77.85;51.30;;;;;;;1.29;100.00;101130.59;5040678;28;20032;-69
2023/12/06 06:10:42;;;;;;;85.30;54.20;;;;;;;1.32;100.00;101134.94;5039196;28;20094;-69
2023/12/06 06:13:08;;;;;;;84.90;53.67;;;;;;;1.28;100.00;101126.22;5040907;28;20426;-69
2023/12/06 06:15:33;;;;;;;79.10;50.58;;;;;;;1.38;100.00;101134.88;5040961;28;20491;-68
2023/12/06 06:17:58;;;;;;;83.68;52.83;;;;;;;1.35;100.00;101143.66;5040302;28;20029;-69
2023/12/06 06:20:24;;;;;;;80.60;52.88;;;;;;;1.35;100.00;101132.31;5039215;28;20086;-69
2023/12/06 06:22:49;;;;;;;80.45;52.03;;;;;;;1.39;100.00;101145.38;5034196;28;20037;-68
2023/12/06 06:25:14;;;;;;;82.68;50.40;;;;;;;1.40;100.00;101141.88;5040534;28;20021;-68
2023/12/06 06:27:40;;;;;;;79.05;50.90;;;;;;;1.40;100.00;101143.63;5040579;28;20090;-69
2023/12/06 06:30:06;;;;;;;79.18;50.85;;;;;;;1.41;100.00;101146.22;5039756;28;20025;-69
2023/12/06 06:32:31;;;;;;;82.30;51.78;;;;;;;1.40;100.00;101151.50;5041060;28;20031;-69
2023/12/06 06:34:57;;;;;;;81.97;51.40;;;;;;;1.40;100.00;101156.72;5038306;28;20025;-69
2023/12/06 06:37:22;;;;;;;77.65;49.88;;;;;;;1.40;100.00;101162.84;5041270;28;20071;-68
2023/12/06 06:39:48;;;;;;;77.50;49.63;;;;;;;1.42;100.00;101170.69;5040277;28;20104;-70
2023/12/06 06:42:13;;;;;;;77.35;50.00;;;;;;;1.43;100.00;101165.44;5040478;28;20434;-69
2023/12/06 06:44:40;;;;;;;70.88;48.45;;;;;;;1.43;100.00;101168.06;5039650;28;20052;-68
2023/12/06 06:47:06;;;;;;;74.80;49.13;;;;;;;1.39;100.00;101166.34;5040853;28;20028;-68
2023/12/06 06:49:31;;;;;;;76.65;48.85;;;;;;;1.42;100.00;101178.56;5039567;28;20055;-68
2023/12/06 06:51:57;;;;;;;75.60;49.92;;;;;;;1.44;100.00;101180.31;5039446;28;20029;-70
2023/12/06 06:54:22;;;;;;;75.10;48.33;;;;;;;1.44;100.00;101180.31;5040035;28;20029;-68
2023/12/06 06:56:48;;;;;;;70.22;46.97;;;;;;;1.44;100.00;101180.31;5037060;28;20091;-68
2023/12/06 06:59:13;;;;;;;68.68;45.60;;;;;;;1.42;100.00;101174.22;5039211;28;20498;-68
2023/12/06 07:01:39;;;;;;;73.75;47.38;;;;;;;1.44;100.00;101185.53;5037372;28;20366;-68
2023/12/06 07:04:04;;;;;;;69.47;45.53;;;;;;;1.42;100.00;101184.69;5039674;28;20039;-67
2023/12/06 07:06:30;;;;;;;70.07;46.30;;;;;;;1.42;100.00;101189.94;5040897;28;20104;-68
2023/12/06 07:08:55;;;;;;;67.10;44.30;;;;;;;1.43;100.00;101186.44;5040662;28;20020;-72
2023/12/06 07:11:21;;;;;;;68.55;45.38;;;;;;;1.47;100.00;101185.53;5040166;28;20025;-68
2023/12/06 07:13:48;;;;;;;69.78;45.17;;;;;;;1.42;100.00;101187.31;5040460;28;20094;-69
2023/12/06 07:16:13;;;;;;;66.85;44.47;;;;;;;1.44;100.00;101185.53;5040398;28;20025;-71
2023/12/06 07:18:38;;;;;;;65.82;44.83;;;;;;;1.43;100.00;101189.06;5036625;28;20498;-70
2023/12/06 07:21:08;;;;;;;66.13;44.15;;;;;;;1.44;100.00;101193.41;5039859;28;20517;-69
2023/12/06 07:23:34;;;;;;;68.90;45.00;;;;;;;1.43;100.00;101194.31;5040435;28;20049;-69
2023/12/06 07:25:59;;;;;;;64.95;44.55;;;;;;;1.46;100.00;101198.63;5021603;28;20032;-69
2023/12/06 07:28:24;;;;;;;64.53;44.10;;;;;;;1.38;100.00;101188.22;5039159;28;20036;-68
2023/12/06 07:30:50;;;;;;;67.80;43.72;;;;;;;1.46;100.00;101204.78;5043171;28;20043;-69
2023/12/06 07:33:15;;;;;;;62.38;43.10;;;;;;;1.47;100.00;101203.88;5043667;28;20029;-68
2023/12/06 07:35:41;;;;;;;62.75;43.40;;;;;;;1.51;100.00;101206.50;5040398;28;20021;-69
2023/12/06 07:38:09;;;;;;;63.33;43.58;;;;;;;1.54;100.00;101198.59;5042515;28;20033;-69
2023/12/06 07:40:37;;;;;;;62.63;43.40;;;;;;;1.46;100.00;101191.66;5042655;28;20048;-68
2023/12/06 07:43:02;;;;;;;62.40;41.70;;;;;;;1.55;100.00;101210.81;5043566;28;20033;-69
2023/12/06 07:45:28;;;;;;;63.05;43.05;;;;;;;1.56;100.00;101217.81;5043111;28;20051;-69
2023/12/06 07:47:53;;;;;;;61.72;43.25;;;;;;;1.54;100.00;101211.69;5042940;28;20470;-67
2023/12/06 07:50:20;;;;;;;61.35;41.72;;;;;;;1.43;100.00;101215.28;5040653;28;20031;-69
2023/12/06 07:52:46;;;;;;;65.13;41.90;;;;;;;1.36;100.00;101216.19;5041049;28;20032;-68
2023/12/06 07:55:13;;;;;;;64.55;42.95;;;;;;;1.26;100.00;101214.53;5043259;28;20029;-69
2023/12/06 07:57:38;;;;;;;67.30;44.83;;;;;;;1.28;100.00;101238.13;5040107;28;20025;-69
2023/12/06 08:00:07;;;;;;;65.65;42.97;;;;;;;1.20;100.00;101233.78;5041422;28;20047;-69
2023/12/06 08:02:32;;;;;;;63.70;42.28;;;;;;;1.14;100.00;101232.97;5009413;28;20399;-69
2023/12/06 08:04:57;;;;;;;67.43;45.08;;;;;;;0.99;100.00;101207.69;5042649;28;20294;-69
2023/12/06 08:07:24;;;;;;;69.07;43.63;;;;;;;1.03;100.00;101229.53;5042561;28;20025;-71
2023/12/06 08:09:52;;;;;;;72.45;45.45;;;;;;;0.99;100.00;101234.78;5043017;28;20040;-70
2023/12/06 08:12:17;;;;;;;70.68;45.67;;;;;;;0.96;100.00;101228.69;5042913;28;20048;-68
2023/12/06 08:14:43;;;;;;;65.13;43.78;;;;;;;0.90;100.00;101224.34;5043069;28;20067;-68
2023/12/06 08:17:09;;;;;;;69.80;46.05;;;;;;;0.95;100.00;101240.91;5041319;28;20017;-70
2023/12/06 08:19:37;;;;;;;74.72;47.88;;;;;;;0.85;100.00;101234.00;5051825;28;20570;-69
2023/12/06 08:22:03;;;;;;;72.75;47.35;;;;;;;1.01;100.00;101252.28;5048457;28;20098;-68
2023/12/06 08:24:28;;;;;;;78.10;48.90;;;;;;;0.99;100.00;101249.63;5041426;28;20040;-68
2023/12/06 08:26:53;;;;;;;81.13;50.67;;;;;;;1.03;100.00;101255.75;5033567;28;20422;-67
2023/12/06 08:29:19;;;;;;;79.70;49.55;;;;;;;1.06;100.00;101259.22;5034402;28;20032;-68
2023/12/06 08:31:44;;;;;;;79.85;49.67;;;;;;;1.08;100.00;101265.31;5039432;28;20457;-68
2023/12/06 08:34:09;;;;;;;83.13;52.63;;;;;;;1.16;100.00;101262.66;5039959;28;20025;-70
2023/12/06 08:36:35;;;;;;;86.10;50.92;;;;;;;1.16;100.00;101255.66;5040281;28;20028;-68
2023/12/06 08:39:00;;;;;;;80.82;49.40;;;;;;;1.04;100.00;101245.25;5023042;28;20340;-68
2023/12/06 08:41:25;;;;;;;81.32;50.92;;;;;;;1.12;100.00;101269.66;5040847;28;20114;-69
2023/12/06 08:43:51;;;;;;;77.78;49.97;;;;;;;1.16;100.00;101268.75;5040597;28;20032;-68
2023/12/06 08:46:16;;;;;;;82.95;51.85;;;;;;;1.29;100.00;101274.81;5040961;28;20029;-68
2023/12/06 08:48:41;;;;;;;81.97;50.95;;;;;;;1.39;100.00;101276.53;5041659;28;20071;-69
2023/12/06 08:51:08;;;;;;;80.22;51.45;;;;;;;1.48;100.00;101275.59;5041336;28;20394;-68
2023/12/06 08:53:34;;;;;;;80.35;51.33;;;;;;;1.48;100.00;101273.84;5042765;28;20060;-69
2023/12/06 08:56:00;;;;;;;74.90;47.53;;;;;;;1.50;100.00;101276.44;5039670;28;20195;-69
2023/12/06 08:58:25;;;;;;;77.20;47.53;;;;;;;1.53;100.00;101289.53;5036023;28;20025;-69
2023/12/06 09:00:51;;;;;;;72.93;47.10;;;;;;;1.46;100.00;101288.72;5038578;28;20336;-68
2023/12/06 09:03:16;;;;;;;73.20;46.38;;;;;;;1.55;100.00;101294.75;5040819;28;20036;-68
2023/12/06 09:05:41;;;;;;;66.07;45.53;;;;;;;1.56;100.00;101299.16;5041777;28;20025;-69
2023/12/06 09:08:07;;;;;;;66.38;44.47;;;;;;;1.57;100.00;101301.75;5040996;28;20218;-69
2023/12/06 09:10:32;;;;;;;63.42;43.08;;;;;;;1.59;100.00;101312.22;5040165;28;20033;-69
2023/12/06 09:12:57;;;;;;;64.55;43.85;;;;;;;1.55;100.00;101303.53;5038687;28;20035;-70
2023/12/06 09:15:23;;;;;;;63.88;43.95;;;;;;;1.57;100.00;101304.38;5040766;28;20056;-68
2023/12/06 09:17:49;;;;;;;59.63;42.20;;;;;;;1.58;100.00;101308.72;5037625;28;20035;-68
2023/12/06 09:20:15;;;;;;;62.55;41.92;;;;;;;1.58;100.00;101310.50;5041606;28;20066;-69
2023/12/06 09:22:41;;;;;;;58.58;41.03;;;;;;;1.56;100.00;101307.88;5022244;28;20036;-69
2023/12/06 09:25:06;;;;;;;56.85;40.80;;;;;;;1.58;100.00;101313.13;5040979;28;20037;-68
2023/12/06 09:27:32;;;;;;;57.35;40.17;;;;;;;1.59;100.00;101309.59;5038508;28;20033;-70
2023/12/06 09:29:57;;;;;;;61.03;40.78;;;;;;;1.62;100.00;101306.97;5028908;28;20147;-71
2023/12/06 09:32:25;;;;;;;56.35;39.80;;;;;;;1.64;100.00;101308.72;5040088;28;20052;-69
2023/12/06 09:34:52;;;;;;;58.15;39.65;;;;;;;1.64;100.00;101313.09;5041441;28;20021;-69
2023/12/06 09:37:17;;;;;;;57.85;40.08;;;;;;;1.68;100.00;101318.31;5039974;28;20059;-68
2023/12/06 09:39:43;;;;;;;55.67;39.00;;;;;;;1.67;100.00;101318.28;5040002;28;20104;-69
2023/12/06 09:42:10;;;;;;;51.60;38.67;;;;;;;1.77;100.00;101317.38;5035167;28;20078;-68
2023/12/06 09:44:39;;;;;;;54.08;38.20;;;;;;;1.79;100.00;101320.84;5038140;28;20110;-69
2023/12/06 09:47:07;;;;;;;52.20;39.00;;;;;;;1.83;100.00;101326.94;5038826;28;20033;-68
2023/12/06 09:49:33;;;;;;;50.28;38.17;;;;;;;1.91;100.00;101331.25;5037962;28;20029;-69
2023/12/06 09:52:07;;;;;;;52.47;38.53;;;;;;;1.96;100.00;101339.97;5039085;28;20538;-67
2023/12/06 09:54:32;;;;;;;47.08;34.80;;;;;;;2.11;100.00;101332.84;5039684;28;20064;-70
2023/12/06 09:56:58;;;;;;;44.88;34.60;;;;;;;2.27;100.00;101328.34;5039691;28;20037;-70
2023/12/06 09:59:23;;;;;;;42.78;33.63;;;;;;;2.49;100.00;101336.00;5039707;28;20292;-69
2023/12/06 10:01:49;;;;;;;41.00;30.85;;;;;;;2.65;100.00;101341.13;5038189;28;20326;-69
2023/12/06 10:04:14;;;;;;;33.47;27.33;;;;;;;2.74;100.00;101327.88;5039336;28;20043;-69
2023/12/06 10:06:42;;;;;;;32.92;26.67;;;;;;;2.92;100.00;101330.28;5037637;28;20502;-68
2023/12/06 10:09:10;;;;;;;33.28;25.35;;;;;;;3.04;100.00;101333.66;5038674;28;20029;-68
2023/12/06 10:11:36;;;;;;;29.10;22.88;;;;;;;3.00;100.00;101328.44;5038301;28;20078;-68
2023/12/06 10:14:02;;;;;;;26.55;22.92;;;;;;;3.17;100.00;101343.13;5039178;28;20352;-69
2023/12/06 10:16:28;;;;;;;31.25;23.35;;;;;;;3.16;100.00;101337.00;5040603;28;20032;-69
2023/12/06 10:18:54;;;;;;;26.13;21.17;;;;;;;3.29;100.00;101348.25;5040407;28;20025;-69
2023/12/06 10:21:20;;;;;;;27.70;21.20;;;;;;;3.30;100.00;101346.50;5040897;28;20025;-68
2023/12/06 10:23:53;;;;;;;28.15;21.65;;;;;;;3.24;100.00;101344.81;5037731;28;20120;-68
2023/12/06 10:26:19;;;;;;;25.02;20.67;;;;;;;3.17;100.00;101343.13;5040016;28;20025;-69
2023/12/06 10:28:45;;;;;;;22.98;19.40;;;;;;;3.11;100.00;101343.22;5040568;28;20537;-66
2023/12/06 10:31:10;;;;;;;26.02;19.92;;;;;;;3.15;100.00;101330.03;5039561;28;20051;-68
2023/12/06 10:33:39;;;;;;;21.63;18.38;;;;;;;3.31;100.00;101341.22;5038644;28;20425;-68
2023/12/06 10:36:08;;;;;;;23.90;20.23;;;;;;;3.39;100.00;101339.38;5040270;28;20434;-67
2023/12/06 10:38:36;;;;;;;24.30;18.15;;;;;;;3.60;100.00;101345.22;5040225;28;20033;-67
2023/12/06 10:41:07;;;;;;;20.98;17.45;;;;;;;3.59;100.00;101343.47;5037903;28;20116;-68
2023/12/06 10:43:35;;;;;;;19.85;16.83;;;;;;;3.63;100.00;101348.66;5040682;28;20036;-69
2023/12/06 10:46:00;;;;;;;18.38;16.40;;;;;;;3.66;100.00;101347.75;5041042;28;20045;-69
2023/12/06 10:48:29;;;;;;;20.35;16.67;;;;;;;3.69;100.00;101347.72;5039873;28;20577;-68
2023/12/06 10:50:55;;;;;;;19.05;17.05;;;;;;;3.68;100.00;101341.59;5039828;28;20280;-67
2023/12/06 10:53:21;;;;;;;20.83;16.98;;;;;;;3.83;100.00;101336.97;5040116;28;20379;-68
2023/12/06 10:55:47;;;;;;;17.25;15.43;;;;;;;3.90;100.00;101334.22;5038967;28;20033;-69
2023/12/06 10:58:16;;;;;;;19.85;15.73;;;;;;;3.91;100.00;101333.34;5039993;28;20025;-68
2023/12/06 11:00:42;;;;;;;21.30;16.63;;;;;;;4.03;100.00;101332.28;5041059;28;20094;-70
2023/12/06 11:03:08;;;;;;;17.50;15.00;;;;;;;4.16;100.00;101332.94;5039735;28;20013;-68